Time;durP1;ratioP1;P1;durP2;ratioP2;P2;SDS_P1;SDS_P2;PMS_P1;PMS_P2;Temp;Humidity;BMP_temperature;BMP_pressure;BME280_temperature;BME280_humidity;BME280_pressure;Samples;Min_cycle;Max_cycle;Signal;HPM_P1;HPM_P2
2023/10/04 00:04:03;;;;;;;;;;;12.60;99.90;;;;;;12522699;28;19999;-33
2023/10/04 00:10:05;;;;;;;;;;;12.60;99.90;;;;;;12561921;28;19972;-34
2023/10/04 00:16:07;;;;;;;;;;;12.50;99.90;;;;;;12551337;28;19928;-34
2023/10/04 00:22:09;;;;;;;;;;;12.50;99.90;;;;;;12556463;28;19935;-34
2023/10/04 00:28:12;;;;;;;;;;;12.60;99.90;;;;;;12553916;28;19928;-34
2023/10/04 00:34:13;;;;;;;;;;;12.50;99.90;;;;;;12557885;28;19924;-34
2023/10/04 00:40:21;;;;;;;;;;;12.50;99.90;;;;;;12554976;28;20041;-33
2023/10/04 00:46:23;;;;;;;;;;;12.50;99.90;;;;;;12556154;28;19935;-34
2023/10/04 00:52:25;;;;;;;;;;;12.40;99.90;;;;;;12552738;28;19939;-34
2023/10/04 00:58:28;;;;;;;;;;;12.40;99.90;;;;;;12556354;28;19928;-34
2023/10/04 01:05:02;;;;;;;;;;;12.30;99.90;;;;;;12527777;28;19927;-34
2023/10/04 01:11:06;;;;;;;;;;;12.40;99.90;;;;;;12550540;28;19928;-34
2023/10/04 01:17:12;;;;;;;;;;;12.40;99.90;;;;;;12552790;28;19962;-34
2023/10/04 01:23:14;;;;;;;;;;;12.50;99.90;;;;;;12544584;28;19928;-34
2023/10/04 01:29:18;;;;;;;;;;;12.40;99.90;;;;;;12556217;28;20009;-34
2023/10/04 01:35:24;;;;;;;;;;;12.40;99.90;;;;;;12561278;28;20396;-34
2023/10/04 01:41:26;;;;;;;;;;;12.40;99.90;;;;;;12552484;28;19960;-33
2023/10/04 01:47:28;;;;;;;;;;;12.50;99.90;;;;;;12544237;28;19928;-34
2023/10/04 01:53:30;;;;;;;;;;;12.40;99.90;;;;;;12534701;28;19932;-34
2023/10/04 01:59:31;;;;;;;;;;;12.40;99.90;;;;;;12544200;28;19928;-34
2023/10/04 02:05:37;;;;;;;;;;;12.40;99.90;;;;;;12532258;28;19983;-34
2023/10/04 02:11:41;;;;;;;;;;;12.40;99.90;;;;;;12552145;28;19928;-34
2023/10/04 02:17:44;;;;;;;;;;;12.40;99.90;;;;;;12535153;28;20550;-34
2023/10/04 02:23:46;;;;;;;;;;;12.40;99.90;;;;;;12546450;28;19944;-34
2023/10/04 02:29:49;;;;;;;;;;;12.30;99.90;;;;;;12550458;28;19932;-33
2023/10/04 02:35:50;;;;;;;;;;;12.40;99.90;;;;;;12546289;28;19959;-33
2023/10/04 02:41:53;;;;;;;;;;;12.40;99.90;;;;;;12555646;28;19939;-33
2023/10/04 02:47:55;;;;;;;;;;;12.40;99.90;;;;;;12547479;28;20363;-33
2023/10/04 02:53:57;;;;;;;;;;;12.20;99.90;;;;;;12551302;28;20351;-33
2023/10/04 03:00:03;;;;;;;;;;;12.20;99.90;;;;;;12551107;28;20069;-34
2023/10/04 03:06:05;;;;;;;;;;;12.30;99.90;;;;;;12529791;28;19925;-35
2023/10/04 03:12:07;;;;;;;;;;;12.20;99.90;;;;;;12553030;28;19928;-34
2023/10/04 03:18:21;;;;;;;;;;;12.20;99.90;;;;;;12541239;28;19982;-34
2023/10/04 03:24:25;;;;;;;;;;;12.20;99.90;;;;;;12560646;28;20388;-34
2023/10/04 03:30:27;;;;;;;;;;;12.10;99.90;;;;;;12561157;28;19935;-34
2023/10/04 03:36:29;;;;;;;;;;;12.10;99.90;;;;;;12549805;28;20278;-34
2023/10/04 03:42:34;;;;;;;;;;;12.10;99.90;;;;;;12561012;28;19929;-34
2023/10/04 03:48:37;;;;;;;;;;;12.10;99.90;;;;;;12552679;28;19994;-35
2023/10/04 03:54:39;;;;;;;;;;;12.20;99.90;;;;;;12556270;28;19929;-35
2023/10/04 04:00:41;;;;;;;;;;;12.20;99.90;;;;;;12541361;28;19939;-34
2023/10/04 04:06:43;;;;;;;;;;;12.10;99.90;;;;;;12536090;28;19958;-35
2023/10/04 04:12:46;;;;;;;;;;;12.20;99.90;;;;;;12559487;28;20017;-33
2023/10/04 04:18:52;;;;;;;;;;;12.20;99.90;;;;;;12548797;28;20426;-34
2023/10/04 04:24:56;;;;;;;;;;;12.20;99.90;;;;;;12551012;28;19931;-35
2023/10/04 04:30:58;;;;;;;;;;;12.20;99.90;;;;;;12553207;28;20336;-35
2023/10/04 04:37:00;;;;;;;;;;;12.10;99.90;;;;;;12540458;28;19971;-35
2023/10/04 04:43:14;;;;;;;;;;;12.20;99.90;;;;;;12555741;28;19975;-34
2023/10/04 04:49:17;;;;;;;;;;;12.20;99.90;;;;;;12550034;28;19939;-34
2023/10/04 04:55:19;;;;;;;;;;;12.20;99.90;;;;;;12551137;28;20289;-34
2023/10/04 05:01:21;;;;;;;;;;;12.10;99.90;;;;;;12548357;28;19994;-34
2023/10/04 05:07:27;;;;;;;;;;;12.10;99.90;;;;;;12528650;28;20722;-35
2023/10/04 05:13:29;;;;;;;;;;;12.10;99.90;;;;;;12552966;28;19928;-34
2023/10/04 05:19:30;;;;;;;;;;;12.20;99.90;;;;;;12544185;28;19972;-35
2023/10/04 05:25:32;;;;;;;;;;;12.20;99.90;;;;;;12562846;28;20371;-34
2023/10/04 05:31:34;;;;;;;;;;;12.10;99.90;;;;;;12555425;28;19935;-34
2023/10/04 05:37:36;;;;;;;;;;;12.10;99.90;;;;;;12547792;28;19956;-34
2023/10/04 05:43:38;;;;;;;;;;;12.10;99.90;;;;;;12544243;28;20345;-34
2023/10/04 05:49:40;;;;;;;;;;;12.10;99.90;;;;;;12527339;28;19932;-35
2023/10/04 05:55:42;;;;;;;;;;;12.10;99.90;;;;;;12544018;28;19925;-35
2023/10/04 06:01:44;;;;;;;;;;;12.20;99.90;;;;;;12540499;28;19933;-34
2023/10/04 06:07:49;;;;;;;;;;;12.10;99.90;;;;;;12535376;28;19925;-34
2023/10/04 06:13:51;;;;;;;;;;;12.20;99.90;;;;;;12549725;28;20027;-34
2023/10/04 06:19:54;;;;;;;;;;;12.10;99.90;;;;;;12550025;28;19929;-34
2023/10/04 06:25:56;;;;;;;;;;;12.10;99.90;;;;;;12551041;28;20459;-35
2023/10/04 06:31:58;;;;;;;;;;;12.20;99.90;;;;;;12550632;28;20741;-34
2023/10/04 06:38:01;;;;;;;;;;;12.30;99.90;;;;;;12549438;28;19951;-35
2023/10/04 06:44:02;;;;;;;;;;;12.20;99.90;;;;;;12553233;28;19990;-34
2023/10/04 06:50:06;;;;;;;;;;;12.30;99.90;;;;;;12546747;28;20024;-35
2023/10/04 06:56:08;;;;;;;;;;;12.40;99.90;;;;;;12550090;28;20023;-35
2023/10/04 07:02:10;;;;;;;;;;;12.40;99.90;;;;;;12548202;28;19928;-34
2023/10/04 07:08:16;;;;;;;;;;;12.50;99.90;;;;;;12521920;28;19935;-35
2023/10/04 07:14:18;;;;;;;;;;;12.50;99.90;;;;;;12552037;28;19924;-35
2023/10/04 07:20:20;;;;;;;;;;;12.60;99.90;;;;;;12548662;28;19968;-34
2023/10/04 07:26:21;;;;;;;;;;;12.70;99.90;;;;;;12529950;28;19978;-35
2023/10/04 07:32:23;;;;;;;;;;;12.80;99.90;;;;;;12554289;28;19987;-35
2023/10/04 07:38:25;;;;;;;;;;;13.00;99.90;;;;;;12544435;28;19929;-34
2023/10/04 07:44:30;;;;;;;;;;;13.20;99.90;;;;;;12546220;28;19929;-35
2023/10/04 07:50:33;;;;;;;;;;;13.40;99.90;;;;;;12551928;28;19999;-35
2023/10/04 07:56:35;;;;;;;;;;;13.50;99.90;;;;;;12544079;28;19929;-35
2023/10/04 08:02:38;;;;;;;;;;;13.60;99.90;;;;;;12544234;28;19932;-34
2023/10/04 08:08:41;;;;;;;;;;;13.90;99.90;;;;;;12538887;28;19935;-35
2023/10/04 08:14:43;;;;;;;;;;;14.00;99.90;;;;;;12550921;28;20022;-35
2023/10/04 08:20:46;;;;;;;;;;;14.10;99.90;;;;;;12556342;28;20385;-35
2023/10/04 08:26:48;;;;;;;;;;;14.30;99.90;;;;;;12559191;28;19936;-34
2023/10/04 08:32:51;;;;;;;;;;;14.50;99.90;;;;;;12549342;28;19924;-35
2023/10/04 08:38:53;;;;;;;;;;;14.60;99.90;;;;;;12532883;28;19928;-35
2023/10/04 08:44:55;;;;;;;;;;;14.50;99.90;;;;;;12552065;28;20048;-35
2023/10/04 08:50:57;;;;;;;;;;;14.60;99.90;;;;;;12548920;28;20016;-35
2023/10/04 08:57:08;;;;;;;;;;;14.70;99.90;;;;;;12554738;28;20301;-35
2023/10/04 09:03:12;;;;;;;;;;;15.00;99.90;;;;;;12546803;28;19932;-35
2023/10/04 09:09:15;;;;;;;;;;;14.90;99.90;;;;;;12545691;28;19933;-35
2023/10/04 09:15:18;;;;;;;;;;;15.10;99.90;;;;;;12554609;28;19936;-35
2023/10/04 09:21:20;;;;;;;;;;;15.20;99.90;;;;;;12550712;28;20303;-35
2023/10/04 09:27:22;;;;;;;;;;;15.10;99.90;;;;;;12551907;28;20484;-35
2023/10/04 09:33:28;;;;;;;;;;;15.20;99.90;;;;;;12553451;28;20388;-35
2023/10/04 09:39:36;;;;;;;;;;;15.40;99.90;;;;;;12530776;28;19938;-35
2023/10/04 09:45:37;;;;;;;;;;;15.50;99.90;;;;;;12532633;28;19940;-35
2023/10/04 09:51:40;;;;;;;;;;;15.50;99.90;;;;;;12540426;28;19925;-35
2023/10/04 09:57:43;;;;;;;;;;;15.40;99.90;;;;;;12544255;28;20305;-35
2023/10/04 10:03:55;;;;;;;;;;;15.80;99.90;;;;;;12532178;28;19933;-35
2023/10/04 10:10:05;;;;;;;;;;;16.00;99.90;;;;;;12556888;28;20277;-35
2023/10/04 10:16:19;;;;;;;;;;;16.10;99.90;;;;;;12545624;28;19932;-35
2023/10/04 10:22:21;;;;;;;;;;;15.80;99.90;;;;;;12542687;28;19928;-35
2023/10/04 10:28:23;;;;;;;;;;;15.70;99.90;;;;;;12553927;28;19963;-35
2023/10/04 10:34:27;;;;;;;;;;;15.50;99.90;;;;;;12553953;28;19928;-35
2023/10/04 10:40:32;;;;;;;;;;;15.30;99.90;;;;;;12552183;28;20304;-35
2023/10/04 10:46:51;;;;;;;;;;;15.50;99.90;;;;;;12548566;28;20330;-35
2023/10/04 10:53:10;;;;;;;;;;;15.60;99.90;;;;;;12555973;28;19925;-35
2023/10/04 10:59:30;;;;;;;;;;;15.50;99.90;;;;;;12561086;28;20343;-35
2023/10/04 11:05:50;;;;;;;;;;;15.60;99.90;;;;;;12560350;28;20392;-35
2023/10/04 11:12:15;;;;;;;;;;;15.90;99.90;;;;;;12568427;28;19934;-35
2023/10/04 11:18:40;;;;;;;;;;;15.70;99.90;;;;;;12563093;28;20245;-35
2023/10/04 11:25:02;;;;;;;;;;;15.50;99.90;;;;;;12549294;28;20050;-35
2023/10/04 11:31:23;;;;;;;;;;;15.70;84.40;;;;;;12561470;28;19931;-35
2023/10/04 11:38:00;;;;;;;;;;;15.60;52.30;;;;;;12571159;28;19928;-35
2023/10/04 11:44:25;;;;;;;;;;;15.90;99.90;;;;;;12566047;28;19928;-35
2023/10/04 11:50:51;;;;;;;;;;;15.90;99.90;;;;;;12578125;28;20396;-35
2023/10/04 11:57:05;;;;;;;;;;;15.90;99.90;;;;;;12571645;28;20202;-34
2023/10/04 12:03:26;;;;;;;;;;;15.90;99.90;;;;;;12561384;28;20631;-35
2023/10/04 12:09:48;;;;;;;;;;;15.90;99.90;;;;;;12563514;28;19997;-35
2023/10/04 12:16:13;;;;;;;;;;;16.00;99.90;;;;;;12562152;28;19928;-35
2023/10/04 12:22:37;;;;;;;;;;;16.10;99.90;;;;;;12568727;28;20469;-35
2023/10/04 12:28:58;;;;;;;;;;;16.10;99.90;;;;;;12548452;28;20308;-35
2023/10/04 12:35:17;;;;;;;;;;;16.20;99.90;;;;;;12570619;28;20309;-35
2023/10/04 12:41:37;;;;;;;;;;;16.00;99.90;;;;;;12564267;28;19963;-35
2023/10/04 12:47:50;;;;;;;;;;;15.90;99.90;;;;;;12564772;28;19971;-35
2023/10/04 12:54:01;;;;;;;;;;;16.00;99.90;;;;;;12573858;28;19929;-34
2023/10/04 13:00:18;;;;;;;;;;;16.00;99.90;;;;;;12582102;28;19996;-35
2023/10/04 13:06:43;;;;;;;;;;;16.00;99.90;;;;;;12565080;28;19928;-35
2023/10/04 13:13:16;;;;;;;;;;;16.10;99.90;;;;;;12564661;28;19928;-35
2023/10/04 13:19:37;;;;;;;;;;;16.20;99.90;;;;;;12578159;28;19924;-35
2023/10/04 13:25:55;;;;;;;;;;;16.10;99.90;;;;;;12578036;28;19924;-35
2023/10/04 13:32:18;;;;;;;;;;;16.20;99.90;;;;;;12577477;28;19924;-34
2023/10/04 13:38:47;;;;;;;;;;;16.20;99.90;;;;;;12552864;28;20141;-35
2023/10/04 13:45:06;;;;;;;;;;;16.20;99.90;;;;;;12572762;28;19935;-35
2023/10/04 13:51:32;;;;;;;;;;;16.20;99.90;;;;;;12578083;28;19971;-35
2023/10/04 13:57:55;;;;;;;;;;;16.20;99.90;;;;;;12580573;28;19924;-35
2023/10/04 14:04:13;;;;;;;;;;;16.10;99.90;;;;;;12562296;28;20304;-35
2023/10/04 14:10:32;;;;;;;;;;;16.10;99.90;;;;;;12572030;28;19933;-35
2023/10/04 14:16:49;;;;;;;;;;;15.90;99.90;;;;;;12570214;28;19931;-35
2023/10/04 14:23:10;;;;;;;;;;;15.90;99.90;;;;;;12577482;28;19929;-35
2023/10/04 14:29:27;;;;;;;;;;;16.00;99.90;;;;;;12554491;28;20019;-35
2023/10/04 14:35:39;;;;;;;;;;;16.00;99.90;;;;;;12566005;28;20019;-35
2023/10/04 14:41:49;;;;;;;;;;;16.10;99.90;;;;;;12564064;28;19932;-35
2023/10/04 14:48:00;;;;;;;;;;;16.10;99.90;;;;;;12568307;28;19951;-35
2023/10/04 14:54:07;;;;;;;;;;;16.10;99.90;;;;;;12563497;28;20284;-35
2023/10/04 15:00:19;;;;;;;;;;;16.00;99.90;;;;;;12552278;28;19925;-34
2023/10/04 15:06:30;;;;;;;;;;;15.90;99.90;;;;;;12562819;28;20503;-35
2023/10/04 15:12:46;;;;;;;;;;;15.80;99.90;;;;;;12564967;28;20732;-34
2023/10/04 15:19:09;;;;;;;;;;;15.70;99.90;;;;;;12580912;28;20376;-35
2023/10/04 15:25:19;;;;;;;;;;;15.70;99.90;;;;;;12580718;28;19929;-34
2023/10/04 15:31:31;;;;;;;;;;;15.50;99.90;;;;;;12549173;28;19983;-35
2023/10/04 15:37:44;;;;;;;;;;;15.60;99.90;;;;;;12570967;28;19924;-37
2023/10/04 15:44:04;;;;;;;;;;;15.50;99.90;;;;;;12580196;28;19951;-34
2023/10/04 15:50:25;;;;;;;;;;;15.40;99.90;;;;;;12573180;28;20312;-35
2023/10/04 15:56:41;;;;;;;;;;;15.40;99.90;;;;;;12573893;28;19928;-35
2023/10/04 16:03:05;;;;;;;;;;;15.30;99.90;;;;;;12581836;28;20319;-35
2023/10/04 16:09:34;;;;;;;;;;;15.30;99.90;;;;;;12573876;28;20018;-35
2023/10/04 16:15:51;;;;;;;;;;;15.20;99.90;;;;;;12582448;28;19928;-35
2023/10/04 16:22:11;;;;;;;;;;;15.20;99.90;;;;;;12560687;28;19929;-34
2023/10/04 16:28:30;;;;;;;;;;;15.10;99.90;;;;;;12577372;28;19925;-35
2023/10/04 16:34:51;;;;;;;;;;;15.00;99.90;;;;;;12580767;28;19933;-35
2023/10/04 16:41:16;;;;;;;;;;;14.90;99.90;;;;;;12582048;28;19935;-35
2023/10/04 16:47:36;;;;;;;;;;;14.90;99.90;;;;;;12578548;28;19944;-35
2023/10/04 16:54:00;;;;;;;;;;;14.90;99.90;;;;;;12575922;28;19924;-34
2023/10/04 17:00:20;;;;;;;;;;;14.80;99.90;;;;;;12579523;28;20019;-35
2023/10/04 17:06:46;;;;;;;;;;;14.70;99.90;;;;;;12575288;28;19933;-35
2023/10/04 17:13:08;;;;;;;;;;;14.70;99.90;;;;;;12578519;28;19948;-35
2023/10/04 17:19:29;;;;;;;;;;;14.60;99.90;;;;;;12569161;28;19925;-35
2023/10/04 17:25:47;;;;;;;;;;;14.60;99.90;;;;;;12553211;28;20400;-35
2023/10/04 17:32:00;;;;;;;;;;;14.50;99.90;;;;;;12575898;28;19924;-35
2023/10/04 17:38:09;;;;;;;;;;;14.50;99.90;;;;;;12563086;28;19929;-34
2023/10/04 17:44:14;;;;;;;;;;;14.60;99.90;;;;;;12551824;28;19936;-34
2023/10/04 17:50:29;;;;;;;;;;;14.60;99.90;;;;;;12557897;28;19951;-35
2023/10/04 17:56:52;;;;;;;;;;;14.50;99.90;;;;;;12570333;28;20400;-35
2023/10/04 18:03:11;;;;;;;;;;;14.50;99.90;;;;;;12572077;28;20385;-35
2023/10/04 18:09:36;;;;;;;;;;;14.50;99.90;;;;;;12570885;28;19954;-35
2023/10/04 18:15:59;;;;;;;;;;;14.50;99.90;;;;;;12568831;28;20011;-35
2023/10/04 18:22:13;;;;;;;;;;;14.40;99.90;;;;;;12554460;28;19951;-35
2023/10/04 18:28:30;;;;;;;;;;;14.30;99.90;;;;;;12572287;28;19932;-34
2023/10/04 18:34:49;;;;;;;;;;;14.30;99.90;;;;;;12571095;28;20434;-34
2023/10/04 18:41:14;;;;;;;;;;;14.30;99.90;;;;;;12565783;28;19932;-35
2023/10/04 18:47:36;;;;;;;;;;;14.30;99.90;;;;;;12571589;28;19924;-35
2023/10/04 18:53:47;;;;;;;;;;;14.20;99.90;;;;;;12572850;28;19929;-35
2023/10/04 19:00:04;;;;;;;;;;;14.20;99.90;;;;;;12574432;28;19991;-35
2023/10/04 19:06:36;;;;;;;;;;;14.20;99.90;;;;;;12564237;28;19928;-34
2023/10/04 19:12:57;;;;;;;;;;;14.10;99.90;;;;;;12566138;28;19992;-35
2023/10/04 19:19:24;;;;;;;;;;;14.10;99.90;;;;;;12570489;28;20024;-34
2023/10/04 19:25:48;;;;;;;;;;;14.00;99.90;;;;;;12572364;28;19925;-35
2023/10/04 19:32:08;;;;;;;;;;;14.00;99.90;;;;;;12573379;28;19924;-35
2023/10/04 19:38:26;;;;;;;;;;;14.00;99.90;;;;;;12549999;28;19925;-35
2023/10/04 19:44:42;;;;;;;;;;;13.90;99.90;;;;;;12558477;28;20010;-34
2023/10/04 19:51:01;;;;;;;;;;;13.90;99.90;;;;;;12555244;28;20281;-34
2023/10/04 19:57:20;;;;;;;;;;;13.90;99.90;;;;;;12575545;28;19924;-35
2023/10/04 20:03:37;;;;;;;;;;;13.80;99.90;;;;;;12567371;28;20216;-34
2023/10/04 20:09:59;;;;;;;;;;;13.70;99.90;;;;;;12585350;28;20356;-34
2023/10/04 20:16:13;;;;;;;;;;;13.80;99.90;;;;;;12588308;28;19925;-34
2023/10/04 20:22:30;;;;;;;;;;;13.70;99.90;;;;;;12577491;28;19929;-34
2023/10/04 20:28:54;;;;;;;;;;;13.70;99.90;;;;;;12579456;28;19928;-35
2023/10/04 20:35:17;;;;;;;;;;;13.70;99.90;;;;;;12575549;28;20392;-35
2023/10/04 20:41:40;;;;;;;;;;;13.60;99.90;;;;;;12569473;28;19925;-34
2023/10/04 20:48:03;;;;;;;;;;;13.70;99.90;;;;;;12572912;28;19928;-33
2023/10/04 20:54:20;;;;;;;;;;;13.60;99.90;;;;;;12573234;28;20298;-34
2023/10/04 21:00:32;;;;;;;;;;;13.50;99.90;;;;;;12580458;28;20301;-35
2023/10/04 21:06:55;;;;;;;;;;;13.50;99.90;;;;;;12573048;28;19998;-35
2023/10/04 21:13:18;;;;;;;;;;;13.50;99.90;;;;;;12573587;28;20069;-35
2023/10/04 21:19:45;;;;;;;;;;;13.50;99.90;;;;;;12578687;28;19925;-34
2023/10/04 21:26:11;;;;;;;;;;;13.40;99.90;;;;;;12581079;28;19929;-35
2023/10/04 21:33:03;;;;;;;;;;;13.40;99.90;;;;;;12559543;28;20235;-34
2023/10/04 21:39:28;;;;;;;;;;;13.40;99.90;;;;;;12580795;28;19929;-34
2023/10/04 21:45:59;;;;;;;;;;;13.40;99.90;;;;;;12575729;28;20011;-34
2023/10/04 21:52:27;;;;;;;;;;;13.40;99.90;;;;;;12557275;28;19944;-35
2023/10/04 21:58:50;;;;;;;;;;;13.30;99.90;;;;;;12566272;28;19936;-35
2023/10/04 22:05:09;;;;;;;;;;;13.40;99.90;;;;;;12558309;28;20388;-35
2023/10/04 22:11:39;;;;;;;;;;;13.40;99.90;;;;;;12580094;28;20320;-35
2023/10/04 22:18:19;;;;;;;;;;;13.40;99.90;;;;;;12563837;28;23295;-34
2023/10/04 22:24:46;;;;;;;;;;;13.40;99.90;;;;;;12579087;28;19936;-35
2023/10/04 22:31:16;;;;;;;;;;;13.40;99.90;;;;;;12579651;28;20300;-35
2023/10/04 22:37:23;;;;;;;;;;;13.40;99.90;;;;;;12570835;28;19925;-35
2023/10/04 22:43:33;;;;;;;;;;;13.40;99.90;;;;;;12567966;28;20026;-35
2023/10/04 22:49:48;;;;;;;;;;;13.30;99.90;;;;;;12564391;28;20329;-35
2023/10/04 22:56:01;;;;;;;;;;;13.40;99.90;;;;;;12565729;28;20043;-34
2023/10/04 23:02:18;;;;;;;;;;;13.30;99.90;;;;;;12568697;28;20453;-34
2023/10/04 23:08:38;;;;;;;;;;;13.40;99.90;;;;;;12548651;28;19924;-34
2023/10/04 23:14:53;;;;;;;;;;;13.30;99.90;;;;;;12569228;28;20385;-34
2023/10/04 23:21:12;;;;;;;;;;;13.20;99.90;;;;;;12574997;28;19931;-34
2023/10/04 23:27:27;;;;;;;;;;;13.20;99.90;;;;;;12576528;28;19928;-35
2023/10/04 23:33:52;;;;;;;;;;;13.10;99.90;;;;;;12555939;28;19929;-34
2023/10/04 23:40:18;;;;;;;;;;;13.10;99.90;;;;;;12582152;28;19928;-34
2023/10/04 23:46:40;;;;;;;;;;;13.20;99.90;;;;;;12578476;28;20395;-33
2023/10/04 23:53:21;;;;;;;;;;;13.30;99.90;;;;;;12560828;28;20455;-34
2023/10/04 23:59:43;;;;;;;;;;;13.20;99.90;;;;;;12585684;28;19931;-34
